Time;durP1;ratioP1;P1;durP2;ratioP2;P2;SDS_P1;SDS_P2;PMS_P1;PMS_P2;Temp;Humidity;BMP_temperature;BMP_pressure;BME280_temperature;BME280_humidity;BME280_pressure;Samples;Min_cycle;Max_cycle;Signal;HPM_P1;HPM_P2
2021/12/24 00:01:48;;;;;;;7.22;4.40;;;7.10;99.90;;;;;;6219323;23;20036;-82
2021/12/24 00:04:37;;;;;;;7.82;4.38;;;7.20;99.90;;;;;;6217238;23;20028;-81
2021/12/24 00:07:26;;;;;;;5.85;3.88;;;7.20;99.90;;;;;;6220625;23;20600;-82
2021/12/24 00:10:14;;;;;;;8.32;4.15;;;7.30;99.90;;;;;;6221509;23;20437;-81
2021/12/24 00:13:10;;;;;;;6.63;4.00;;;7.40;99.90;;;;;;6221220;23;20374;-80
2021/12/24 00:16:15;;;;;;;8.57;3.83;;;7.50;99.90;;;;;;6241413;23;20034;-81
2021/12/24 00:19:34;;;;;;;6.22;3.95;;;7.50;99.90;;;;;;6221093;23;20031;-81
2021/12/24 00:38:12;;;;;;;6.88;3.97;;;7.50;99.90;;;;;;6233319;23;20039;-81
2021/12/24 00:40:59;;;;;;;6.10;4.25;;;7.50;99.90;;;;;;6211121;23;20469;-81
2021/12/24 00:43:46;;;;;;;4.60;3.70;;;7.40;99.90;;;;;;6231115;23;20036;-81
2021/12/24 00:46:43;;;;;;;7.32;4.40;;;7.40;99.90;;;;;;6241821;23;20336;-80
2021/12/24 00:49:35;;;;;;;6.57;4.30;;;7.30;99.90;;;;;;6195474;23;20028;-81
2021/12/24 00:52:45;;;;;;;6.03;4.25;;;7.20;99.90;;;;;;6221038;23;20021;-83
2021/12/24 00:55:32;;;;;;;6.22;4.10;;;7.10;99.90;;;;;;6245470;23;20024;-80
2021/12/24 00:58:20;;;;;;;9.20;3.83;;;6.90;99.90;;;;;;6222164;23;20108;-83
2021/12/24 01:01:10;;;;;;;7.20;4.30;;;6.90;99.90;;;;;;6245062;23;20070;-81
2021/12/24 01:03:58;;;;;;;6.03;3.90;;;6.80;99.90;;;;;;6243635;23;20024;-82
2021/12/24 01:06:46;;;;;;;7.40;4.60;;;6.80;99.90;;;;;;6222264;23;20020;-82
2021/12/24 01:09:33;;;;;;;5.72;3.80;;;6.90;99.90;;;;;;6186009;23;20035;-82
2021/12/24 01:12:23;;;;;;;6.95;4.10;;;6.90;99.90;;;;;;6223369;23;20035;-82
2021/12/24 01:15:14;;;;;;;9.30;4.43;;;6.90;99.90;;;;;;6174413;23;20039;-82
2021/12/24 01:18:15;;;;;;;7.00;4.55;;;6.90;99.90;;;;;;6236527;23;20812;-82
2021/12/24 01:24:14;;;;;;;6.13;4.55;;;6.70;99.90;;;;;;6237060;23;20031;-82
2021/12/24 01:27:32;;;;;;;7.38;4.18;;;6.50;99.90;;;;;;6222908;23;20028;-82
2021/12/24 01:42:48;;;;;;;7.55;4.53;;;6.80;99.90;;;;;;6157893;23;20020;-81
2021/12/24 01:45:37;;;;;;;7.88;4.05;;;6.80;99.90;;;;;;6224706;23;20403;-81
2021/12/24 01:48:24;;;;;;;6.75;3.80;;;6.80;99.90;;;;;;6217135;23;20024;-80
2021/12/24 01:51:12;;;;;;;11.07;3.92;;;6.70;99.90;;;;;;6193188;23;20120;-81
2021/12/24 01:53:59;;;;;;;6.72;4.13;;;6.70;99.90;;;;;;6222701;23;20028;-82
2021/12/24 01:56:47;;;;;;;5.75;4.10;;;6.60;99.90;;;;;;6223465;23;20032;-81
2021/12/24 01:59:34;;;;;;;8.23;4.28;;;6.60;99.90;;;;;;6244758;23;20055;-81
2021/12/24 02:02:25;;;;;;;7.20;4.18;;;6.50;99.90;;;;;;6244566;23;20462;-83
2021/12/24 02:05:13;;;;;;;6.70;4.35;;;6.50;99.90;;;;;;6193446;23;20028;-81
2021/12/24 02:08:04;;;;;;;5.55;4.30;;;6.40;99.90;;;;;;6220523;23;20031;-82
2021/12/24 02:10:54;;;;;;;7.53;4.10;;;6.40;99.90;;;;;;6242020;23;20039;-81
2021/12/24 02:13:44;;;;;;;6.57;3.47;;;6.40;99.90;;;;;;6223679;23;20028;-79
2021/12/24 02:29:00;;;;;;;5.57;3.50;;;6.50;99.90;;;;;;6242101;23;20024;-81
2021/12/24 02:31:47;;;;;;;8.13;3.83;;;6.50;99.90;;;;;;6221639;23;20093;-83
2021/12/24 02:34:38;;;;;;;5.78;3.80;;;6.60;99.90;;;;;;6216357;23;20024;-81
2021/12/24 02:37:25;;;;;;;5.47;3.90;;;6.60;99.90;;;;;;6221050;23;20024;-81
2021/12/24 02:40:13;;;;;;;6.00;3.55;;;6.60;99.90;;;;;;6193430;23;20641;-81
2021/12/24 02:43:01;;;;;;;4.53;3.28;;;6.60;99.90;;;;;;6212981;23;20035;-81
2021/12/24 02:45:52;;;;;;;4.70;3.53;;;6.50;99.90;;;;;;6232886;23;20028;-81
2021/12/24 02:49:18;;;;;;;7.95;3.92;;;6.50;99.90;;;;;;6221187;23;20106;-82
2021/12/24 02:54:59;;;;;;;6.28;3.75;;;6.60;99.90;;;;;;6223189;23;20062;-83
2021/12/24 02:57:49;;;;;;;4.43;2.88;;;6.60;99.90;;;;;;6223769;23;20055;-82
2021/12/24 03:00:37;;;;;;;7.25;3.60;;;6.60;99.90;;;;;;6241988;23;20086;-81
2021/12/24 03:03:24;;;;;;;6.72;3.92;;;6.60;99.90;;;;;;6195644;23;20035;-82
2021/12/24 03:06:18;;;;;;;6.93;3.55;;;6.60;99.90;;;;;;6212068;23;20024;-80
2021/12/24 03:09:11;;;;;;;6.90;3.40;;;6.60;99.90;;;;;;6213042;23;20021;-82
2021/12/24 03:11:59;;;;;;;9.13;3.80;;;6.70;99.90;;;;;;6220970;23;20074;-81
2021/12/24 03:14:46;;;;;;;4.10;3.28;;;6.60;99.90;;;;;;6203677;23;20339;-81
2021/12/24 03:17:34;;;;;;;6.32;3.53;;;6.60;99.90;;;;;;6197257;23;20058;-81
2021/12/24 03:20:22;;;;;;;7.53;3.42;;;6.60;99.90;;;;;;6221128;23;20024;-81
2021/12/24 03:23:33;;;;;;;6.28;3.80;;;6.60;99.90;;;;;;6241803;23;20086;-83
2021/12/24 03:26:20;;;;;;;7.20;3.55;;;6.60;99.90;;;;;;6213504;23;20081;-80
2021/12/24 03:29:13;;;;;;;7.03;3.40;;;6.60;99.90;;;;;;6192090;23;20024;-81
2021/12/24 03:32:03;;;;;;;;;;;6.60;99.90;;;;;;6206212;23;20100;-80
2021/12/24 03:34:50;;;;;;;6.18;3.40;;;6.60;99.90;;;;;;6233194;23;19915;-81
2021/12/24 03:37:40;;;;;;;5.03;3.45;;;6.50;99.90;;;;;;6216628;23;20435;-79
2021/12/24 03:40:31;;;;;;;7.80;3.75;;;6.50;99.90;;;;;;6216625;23;20711;-79
2021/12/24 03:43:20;;;;;;;7.05;4.22;;;6.40;99.90;;;;;;6193065;23;20025;-83
2021/12/24 03:46:14;;;;;;;7.82;3.38;;;6.50;99.90;;;;;;6190928;23;20134;-81
2021/12/24 03:49:06;;;;;;;8.68;3.65;;;6.50;99.90;;;;;;6242097;23;20020;-82
2021/12/24 03:52:02;;;;;;;6.20;3.85;;;6.50;99.90;;;;;;6219597;23;20078;-81
2021/12/24 03:54:58;;;;;;;6.53;3.53;;;6.40;99.90;;;;;;6199661;23;20024;-81
2021/12/24 03:57:48;;;;;;;5.28;3.15;;;6.50;99.90;;;;;;6219909;23;20039;-81
2021/12/24 04:00:40;;;;;;;5.20;3.38;;;6.60;99.90;;;;;;6176614;23;20103;-80
2021/12/24 04:03:27;;;;;;;6.03;3.33;;;6.60;99.90;;;;;;6219943;23;20123;-82
2021/12/24 04:06:18;;;;;;;6.05;3.22;;;6.60;99.90;;;;;;6192247;23;20072;-80
2021/12/24 04:09:07;;;;;;;5.10;3.17;;;6.50;99.90;;;;;;6192378;23;20044;-81
2021/12/24 04:11:58;;;;;;;4.82;3.05;;;6.40;99.90;;;;;;6211634;23;20478;-82
2021/12/24 04:14:45;;;;;;;5.05;3.22;;;6.30;99.90;;;;;;6219900;23;20085;-82
2021/12/24 04:17:36;;;;;;;6.38;3.42;;;6.30;99.90;;;;;;6195146;23;20036;-82
2021/12/24 04:26:59;;;;;;;6.05;3.80;;;6.10;99.90;;;;;;6242472;23;20032;-82
2021/12/24 04:29:49;;;;;;;5.20;3.63;;;6.10;99.90;;;;;;6204507;23;20024;-81
2021/12/24 04:35:41;;;;;;;5.43;3.10;;;6.20;99.90;;;;;;6217019;23;20123;-82
2021/12/24 04:51:21;;;;;;;5.07;3.22;;;6.40;99.90;;;;;;6238616;23;20028;-78
2021/12/24 05:03:41;;;;;;;5.40;3.30;;;6.60;99.90;;;;;;6252336;23;20269;-83
2021/12/24 05:06:37;;;;;;;5.95;3.58;;;6.50;99.90;;;;;;6232464;23;20058;-82
2021/12/24 05:09:25;;;;;;;4.95;3.45;;;6.60;99.90;;;;;;6219129;23;20510;-80
2021/12/24 05:12:13;;;;;;;7.57;3.50;;;6.60;99.90;;;;;;6171380;23;20020;-81
2021/12/24 05:15:09;;;;;;;4.53;3.35;;;6.60;99.90;;;;;;6169426;23;20118;-81
2021/12/24 05:23:53;;;;;;;5.60;3.40;;;6.60;99.90;;;;;;6202774;23;20024;-81
2021/12/24 05:26:44;;;;;;;4.72;3.42;;;6.60;99.90;;;;;;6196909;23;20450;-82
2021/12/24 05:29:35;;;;;;;6.05;3.70;;;6.70;99.90;;;;;;6219850;23;20020;-79
2021/12/24 05:32:22;;;;;;;5.63;3.28;;;6.80;99.90;;;;;;6217915;23;20031;-82
2021/12/24 05:35:10;;;;;;;5.55;3.55;;;6.80;99.90;;;;;;6191211;23;20424;-81
2021/12/24 05:38:00;;;;;;;4.97;3.25;;;6.90;99.90;;;;;;6209951;23;20065;-83
2021/12/24 05:40:50;;;;;;;4.07;3.40;;;6.80;99.90;;;;;;6210874;23;20288;-81
2021/12/24 05:43:37;;;;;;;4.72;3.13;;;6.80;99.90;;;;;;6200020;23;20024;-82
2021/12/24 05:46:26;;;;;;;4.18;3.30;;;6.80;99.90;;;;;;6243608;23;20067;-79
2021/12/24 05:49:14;;;;;;;5.70;4.10;;;6.80;99.90;;;;;;6221705;23;20079;-79
2021/12/24 05:52:02;;;;;;;6.93;3.70;;;6.80;99.90;;;;;;6219629;23;20028;-80
2021/12/24 05:54:52;;;;;;;5.45;3.38;;;6.80;99.90;;;;;;6221282;23;20028;-80
2021/12/24 05:57:40;;;;;;;5.45;3.80;;;6.80;99.90;;;;;;6223334;23;20336;-81
2021/12/24 06:00:28;;;;;;;5.07;3.65;;;6.90;99.90;;;;;;6196148;23;20039;-80
2021/12/24 06:03:16;;;;;;;5.93;3.38;;;6.90;99.90;;;;;;6191057;23;20033;-81
2021/12/24 06:06:06;;;;;;;5.28;3.65;;;6.90;99.90;;;;;;6243808;23;20028;-81
2021/12/24 06:08:54;;;;;;;5.93;3.47;;;6.90;99.90;;;;;;6200474;23;20024;-81
2021/12/24 06:11:43;;;;;;;6.70;3.80;;;6.90;99.90;;;;;;6198486;23;20123;-79
2021/12/24 06:14:30;;;;;;;5.13;3.40;;;6.90;99.90;;;;;;6196066;23;20324;-80
2021/12/24 06:17:22;;;;;;;7.70;3.58;;;6.90;99.90;;;;;;6245130;23;20035;-81
2021/12/24 06:20:12;;;;;;;6.53;3.63;;;6.80;99.90;;;;;;6221861;23;20478;-84
2021/12/24 06:23:00;;;;;;;6.90;3.53;;;6.70;99.90;;;;;;6223090;23;20034;-78
2021/12/24 06:25:51;;;;;;;6.85;3.53;;;6.70;99.90;;;;;;6179121;23;20127;-80
2021/12/24 06:28:41;;;;;;;7.43;3.90;;;6.70;99.90;;;;;;6222830;23;20396;-79
2021/12/24 06:31:29;;;;;;;6.55;3.60;;;6.70;99.90;;;;;;6244482;23;20039;-78
2021/12/24 06:34:18;;;;;;;6.45;3.88;;;6.70;99.90;;;;;;6246864;22;20037;-79
2021/12/24 06:37:06;;;;;;;5.20;3.78;;;6.70;99.90;;;;;;6221442;23;20134;-79
2021/12/24 06:39:55;;;;;;;6.50;4.15;;;6.60;99.90;;;;;;6222856;23;20047;-80
2021/12/24 06:42:48;;;;;;;6.70;4.28;;;6.60;99.90;;;;;;6222601;23;20023;-80
2021/12/24 06:45:37;;;;;;;5.30;4.30;;;6.60;99.90;;;;;;6200575;23;20027;-80
2021/12/24 06:48:25;;;;;;;5.55;3.72;;;6.60;99.90;;;;;;6245275;23;20027;-80
2021/12/24 06:51:14;;;;;;;7.35;4.13;;;6.50;99.90;;;;;;6192822;23;20021;-81
2021/12/24 06:54:03;;;;;;;6.28;4.00;;;6.60;99.90;;;;;;6192833;23;20103;-82
2021/12/24 06:56:50;;;;;;;5.45;4.03;;;6.70;99.90;;;;;;6212352;23;20158;-78
2021/12/24 06:59:38;;;;;;;7.20;4.65;;;6.70;99.90;;;;;;6228527;23;20039;-81
2021/12/24 07:02:56;;;;;;;7.22;3.83;;;6.70;99.90;;;;;;6216449;23;20060;-83
2021/12/24 07:06:08;;;;;;;7.55;4.55;;;6.70;99.90;;;;;;6232721;23;20029;-81
2021/12/24 07:16:42;;;;;;;6.35;4.75;;;6.80;99.90;;;;;;6067648;23;20105;-79
2021/12/24 07:20:14;;;;;;;10.57;5.30;;;6.80;99.90;;;;;;5981329;24;20075;-80
2021/12/24 07:31:38;;;;;;;7.32;4.28;;;7.00;99.90;;;;;;6123286;23;20052;-80
2021/12/24 07:35:14;;;;;;;9.15;4.80;;;7.00;99.90;;;;;;6134303;23;20219;-82
2021/12/24 07:38:14;;;;;;;8.95;4.88;;;7.00;99.90;;;;;;6221286;23;20025;-81
2021/12/24 07:41:06;;;;;;;6.72;4.30;;;6.80;99.90;;;;;;6204822;23;20040;-81
2021/12/24 07:43:57;;;;;;;7.78;4.35;;;6.80;99.90;;;;;;6208377;23;20043;-78
2021/12/24 07:46:53;;;;;;;7.10;4.20;;;6.80;99.90;;;;;;6182727;23;20031;-82
2021/12/24 07:49:43;;;;;;;8.95;5.20;;;6.80;99.90;;;;;;6205824;23;20058;-82
2021/12/24 07:52:36;;;;;;;9.45;4.85;;;6.80;99.90;;;;;;6182992;23;20040;-80
2021/12/24 07:55:26;;;;;;;12.85;6.03;;;6.80;99.90;;;;;;6225469;23;20039;-81
2021/12/24 07:58:15;;;;;;;10.30;5.32;;;6.80;99.90;;;;;;6204842;23;20043;-82
2021/12/24 08:01:07;;;;;;;6.93;4.85;;;6.80;99.90;;;;;;6185305;23;20070;-81
2021/12/24 08:03:59;;;;;;;10.15;5.70;;;6.80;99.90;;;;;;6216878;23;20065;-83
2021/12/24 08:06:46;;;;;;;8.23;5.53;;;6.90;99.90;;;;;;6195061;23;20153;-83
2021/12/24 08:09:37;;;;;;;7.82;4.88;;;6.80;99.90;;;;;;6217408;23;20020;-82
2021/12/24 08:12:24;;;;;;;8.15;4.43;;;6.80;99.90;;;;;;6196345;23;20076;-81
2021/12/24 08:15:24;;;;;;;9.00;5.00;;;6.80;99.90;;;;;;6218780;23;20028;-83
2021/12/24 08:18:11;;;;;;;10.13;5.43;;;6.80;99.90;;;;;;6197162;23;20039;-80
2021/12/24 08:21:00;;;;;;;9.23;4.63;;;6.80;99.90;;;;;;6200046;23;20025;-81
2021/12/24 08:23:49;;;;;;;10.55;5.22;;;6.90;99.90;;;;;;6195901;23;20128;-80
2021/12/24 08:26:37;;;;;;;10.57;5.07;;;6.90;99.90;;;;;;6196340;23;20039;-82
2021/12/24 08:29:28;;;;;;;7.97;5.00;;;7.00;99.90;;;;;;6170292;23;20036;-82
2021/12/24 08:32:15;;;;;;;7.68;5.03;;;7.00;99.90;;;;;;6195148;23;20371;-80
2021/12/24 08:35:04;;;;;;;8.73;4.82;;;7.00;99.90;;;;;;6199052;23;20032;-82
2021/12/24 08:37:54;;;;;;;9.15;4.93;;;7.00;99.90;;;;;;6198586;23;20029;-81
2021/12/24 08:40:41;;;;;;;8.02;5.13;;;7.00;99.90;;;;;;6198199;23;20040;-81
2021/12/24 08:43:31;;;;;;;7.47;4.55;;;7.00;99.90;;;;;;6195670;23;20025;-81
2021/12/24 08:46:21;;;;;;;7.93;4.50;;;6.90;99.90;;;;;;6178336;23;20020;-82
2021/12/24 08:49:09;;;;;;;9.52;5.07;;;7.00;99.90;;;;;;6219204;23;20055;-82
2021/12/24 08:51:57;;;;;;;7.85;5.03;;;7.00;99.90;;;;;;6170302;23;20025;-79
2021/12/24 08:54:45;;;;;;;6.40;4.55;;;6.90;99.90;;;;;;6198161;23;20032;-80
2021/12/24 08:57:32;;;;;;;11.98;5.40;;;6.80;99.90;;;;;;6171707;23;20320;-82
2021/12/24 09:00:21;;;;;;;8.43;5.93;;;6.70;99.90;;;;;;6169969;23;20096;-82
2021/12/24 09:03:08;;;;;;;9.68;5.88;;;6.60;99.90;;;;;;6168594;23;20029;-82
2021/12/24 09:05:56;;;;;;;16.08;6.68;;;6.60;99.90;;;;;;6191605;23;20385;-81
2021/12/24 09:08:51;;;;;;;11.55;6.38;;;6.50;99.90;;;;;;6179923;23;20424;-81
2021/12/24 09:11:42;;;;;;;14.30;6.95;;;6.50;99.90;;;;;;6195941;23;20025;-82
2021/12/24 09:14:30;;;;;;;8.32;6.22;;;6.50;99.90;;;;;;6201416;23;20025;-82
2021/12/24 09:17:17;;;;;;;13.80;7.38;;;6.40;99.90;;;;;;6201010;23;20036;-81
2021/12/24 09:20:07;;;;;;;18.85;7.65;;;6.50;99.90;;;;;;6222288;23;20031;-82
2021/12/24 09:22:55;;;;;;;17.25;7.43;;;6.50;99.90;;;;;;6221962;23;20024;-81
2021/12/24 09:25:47;;;;;;;13.90;7.28;;;6.50;99.90;;;;;;6224834;23;20028;-80
2021/12/24 09:28:37;;;;;;;13.13;7.45;;;6.50;99.90;;;;;;6199592;23;20082;-81
2021/12/24 09:31:26;;;;;;;11.38;5.88;;;6.50;99.90;;;;;;6189157;23;20290;-80
2021/12/24 09:34:17;;;;;;;13.75;7.47;;;6.50;99.90;;;;;;6217747;23;20024;-82
2021/12/24 09:37:05;;;;;;;11.48;6.65;;;6.60;99.90;;;;;;6168416;23;20033;-82
2021/12/24 09:39:53;;;;;;;9.93;6.03;;;6.60;99.90;;;;;;6209681;23;20123;-81
2021/12/24 09:42:41;;;;;;;9.23;6.70;;;6.60;99.90;;;;;;6173746;23;20423;-81
2021/12/24 09:45:34;;;;;;;11.43;7.07;;;6.60;99.90;;;;;;6174036;23;20029;-81
2021/12/24 09:48:48;;;;;;;21.00;7.65;;;6.60;99.90;;;;;;6199498;23;20301;-79
2021/12/24 10:04:55;;;;;;;15.65;8.07;;;6.60;99.90;;;;;;6072200;23;20560;-79
2021/12/24 10:16:25;;;;;;;14.02;7.32;;;6.60;99.90;;;;;;6158262;23;20388;-82
2021/12/24 10:23:38;;;;;;;12.88;7.22;;;6.50;99.90;;;;;;6157987;23;20017;-82
2021/12/24 10:26:50;;;;;;;10.93;6.93;;;6.50;99.90;;;;;;6158668;23;20128;-79
2021/12/24 10:35:16;;;;;;;;;;;;;;;;;;;;;
2021/12/24 10:42:37;;;;;;;12.80;6.20;;;6.60;99.90;;;;;;6069257;23;20098;-79
2021/12/24 10:46:13;;;;;;;10.15;6.50;;;6.60;99.90;;;;;;6050331;23;20324;-82
2021/12/24 10:58:57;;;;;;;;;;;;;;;;;;;;;
2021/12/24 11:02:52;;;;;;;11.70;6.68;;;6.60;99.90;;;;;;6038300;23;20015;-82
2021/12/24 11:06:39;;;;;;;10.18;5.93;;;6.60;99.90;;;;;;5964810;24;20467;-81
2021/12/24 11:10:30;;;;;;;9.48;6.38;;;6.50;99.90;;;;;;5998029;23;20051;-81
2021/12/24 11:14:20;;;;;;;16.00;7.47;;;6.50;99.90;;;;;;6001544;23;20035;-81
2021/12/24 11:17:58;;;;;;;;;;;;;;;;;;;;;
2021/12/24 11:26:11;;;;;;;10.15;5.82;;;6.60;99.90;;;;;;5822536;24;20018;-80
2021/12/24 11:50:51;;;;;;;8.15;5.70;;;6.90;99.90;;;;;;5978975;23;20074;-80
2021/12/24 11:53:40;;;;;;;7.95;5.07;;;7.00;99.90;;;;;;6031036;23;20026;-81
2021/12/24 11:56:46;;;;;;;7.30;5.38;;;7.00;99.90;;;;;;6185076;23;20040;-80
2021/12/24 11:59:45;;;;;;;6.53;5.47;;;7.10;99.90;;;;;;6185211;23;20176;-81
2021/12/24 12:02:45;;;;;;;8.32;4.53;;;7.00;99.90;;;;;;6145975;23;20033;-80
2021/12/24 12:05:41;;;;;;;10.70;4.75;;;7.10;99.90;;;;;;6185246;23;20448;-82
2021/12/24 12:08:33;;;;;;;8.48;4.38;;;7.10;99.90;;;;;;6144828;23;20029;-81
2021/12/24 12:11:34;;;;;;;8.65;4.90;;;7.10;99.90;;;;;;6164460;23;20021;-81
2021/12/24 12:14:28;;;;;;;6.03;4.22;;;7.20;99.90;;;;;;6166220;23;20029;-81
2021/12/24 12:17:26;;;;;;;6.43;4.53;;;7.20;99.90;;;;;;6139647;23;20025;-80
2021/12/24 12:20:44;;;;;;;6.15;3.83;;;7.30;99.90;;;;;;6164717;23;20032;-80
2021/12/24 12:26:54;;;;;;;5.63;3.35;;;7.40;99.90;;;;;;6195022;23;20029;-81
2021/12/24 12:30:21;;;;;;;4.43;3.13;;;7.40;99.90;;;;;;6171672;23;20025;-81
2021/12/24 12:33:55;;;;;;;3.45;2.90;;;7.40;99.90;;;;;;6201298;23;20367;-81
2021/12/24 12:37:05;;;;;;;;;;;;;;;;;;;;;
2021/12/24 12:40:26;;;;;;;3.60;2.92;;;7.40;99.90;;;;;;6221383;23;20024;-81
2021/12/24 12:44:11;;;;;;;6.28;3.10;;;7.40;99.90;;;;;;6227680;23;20524;-80
2021/12/24 12:47:28;;;;;;;6.45;3.55;;;7.40;99.90;;;;;;6207972;23;20284;-81
2021/12/24 12:51:25;;;;;;;;;;;;;;;;;;;;;
2021/12/24 13:23:28;;;;;;;3.53;2.60;;;7.90;99.90;;;;;;5998873;23;20031;-82
2021/12/24 13:26:24;;;;;;;5.10;2.20;;;7.90;99.90;;;;;;6057126;23;20397;-83
2021/12/24 13:29:13;;;;;;;4.45;2.85;;;7.90;99.90;;;;;;6104693;23;20031;-82
2021/12/24 13:32:01;;;;;;;9.05;3.38;;;7.90;99.90;;;;;;6223907;23;20028;-81
2021/12/24 13:34:56;;;;;;;8.07;3.67;;;7.90;99.90;;;;;;6201772;23;20159;-82
2021/12/24 13:37:47;;;;;;;6.82;4.18;;;7.90;99.90;;;;;;6220925;23;20031;-82
2021/12/24 13:40:35;;;;;;;6.63;2.63;;;7.80;99.90;;;;;;6200940;23;20036;-81
2021/12/24 13:43:24;;;;;;;6.10;3.05;;;7.80;99.90;;;;;;6201187;23;20029;-82
2021/12/24 13:46:12;;;;;;;4.18;2.75;;;7.80;99.90;;;;;;6221636;23;20025;-81
2021/12/24 13:54:59;;;;;;;4.25;3.00;;;7.80;99.90;;;;;;6220912;23;20076;-81
2021/12/24 13:57:56;;;;;;;3.33;2.53;;;7.80;99.90;;;;;;6202638;23;20056;-80
2021/12/24 14:00:53;;;;;;;5.05;2.80;;;7.80;99.90;;;;;;6182234;23;20028;-83
2021/12/24 14:03:48;;;;;;;3.03;2.30;;;7.80;99.90;;;;;;6201805;23;20059;-82
2021/12/24 14:06:41;;;;;;;3.75;2.20;;;7.90;99.90;;;;;;6182017;23;20395;-81
2021/12/24 14:09:39;;;;;;;2.85;2.60;;;7.90;99.90;;;;;;6204043;23;20040;-82
2021/12/24 14:12:28;;;;;;;5.00;2.88;;;7.90;99.90;;;;;;6181330;23;20021;-82
2021/12/24 14:15:22;;;;;;;5.35;2.70;;;8.00;99.90;;;;;;6185248;23;20020;-82
2021/12/24 14:18:42;;;;;;;3.80;2.67;;;7.90;99.90;;;;;;6182186;23;20043;-80
2021/12/24 14:24:36;;;;;;;4.13;3.08;;;7.90;99.90;;;;;;6229227;23;20039;-81
2021/12/24 14:27:27;;;;;;;4.72;3.40;;;7.90;99.90;;;;;;6205588;23;20060;-80
2021/12/24 14:30:22;;;;;;;6.57;3.45;;;7.90;99.90;;;;;;6202816;23;20025;-81
2021/12/24 14:33:14;;;;;;;4.15;3.38;;;7.80;99.90;;;;;;6204390;23;20040;-79
2021/12/24 14:36:03;;;;;;;4.40;3.27;;;7.80;99.90;;;;;;6181334;23;20025;-79
2021/12/24 14:38:51;;;;;;;5.18;3.10;;;7.80;99.90;;;;;;6202880;23;20024;-79
2021/12/24 14:41:39;;;;;;;5.72;3.03;;;7.70;99.90;;;;;;6184403;23;20056;-81
2021/12/24 14:44:29;;;;;;;4.18;3.10;;;7.60;99.90;;;;;;6220227;23;20124;-81
2021/12/24 14:47:25;;;;;;;7.15;2.72;;;7.60;99.90;;;;;;6224218;23;20020;-82
2021/12/24 14:50:16;;;;;;;3.40;2.47;;;7.60;99.90;;;;;;6189012;23;20027;-80
2021/12/24 14:53:24;;;;;;;6.68;3.72;;;7.60;99.90;;;;;;6205223;23;20146;-79
2021/12/24 14:56:17;;;;;;;6.32;2.97;;;7.60;99.90;;;;;;6223145;23;20048;-82
2021/12/24 14:59:07;;;;;;;5.43;3.45;;;7.60;99.90;;;;;;6204058;23;20079;-82
2021/12/24 15:02:01;;;;;;;8.32;3.47;;;7.60;99.90;;;;;;6182827;23;20039;-80
2021/12/24 15:04:57;;;;;;;3.30;2.90;;;7.60;99.90;;;;;;6198435;23;20027;-81
2021/12/24 15:07:46;;;;;;;5.70;2.78;;;7.50;99.90;;;;;;6176394;23;20028;-81
2021/12/24 15:10:37;;;;;;;3.58;2.72;;;7.50;99.90;;;;;;6194493;23;20033;-80
2021/12/24 15:13:26;;;;;;;3.80;2.50;;;7.50;99.90;;;;;;6194779;23;20024;-82
2021/12/24 15:16:20;;;;;;;3.33;2.80;;;7.50;99.90;;;;;;6196212;23;20031;-80
2021/12/24 15:19:10;;;;;;;2.90;2.38;;;7.50;99.90;;;;;;6191541;23;20020;-81
2021/12/24 15:21:57;;;;;;;3.40;2.10;;;7.40;99.90;;;;;;6172280;23;20099;-81
2021/12/24 15:24:44;;;;;;;3.20;2.53;;;7.40;99.90;;;;;;6194377;23;20166;-80
2021/12/24 15:27:36;;;;;;;3.90;2.33;;;7.40;99.90;;;;;;6183083;23;20025;-80
2021/12/24 15:30:29;;;;;;;3.97;2.90;;;7.30;99.90;;;;;;6204494;23;20162;-82
2021/12/24 15:33:16;;;;;;;8.00;4.70;;;7.30;99.90;;;;;;6227064;23;20501;-82
2021/12/24 15:36:05;;;;;;;9.75;5.75;;;7.30;99.90;;;;;;6229614;23;20040;-81
2021/12/24 15:38:52;;;;;;;5.53;3.22;;;7.30;99.90;;;;;;6208186;23;20154;-81
2021/12/24 15:41:47;;;;;;;5.57;3.72;;;7.30;99.90;;;;;;6230613;23;20029;-81
2021/12/24 15:44:42;;;;;;;7.43;3.83;;;7.30;99.90;;;;;;6208834;23;20067;-80
2021/12/24 15:47:29;;;;;;;4.80;2.55;;;7.30;99.90;;;;;;6236756;23;20043;-81
2021/12/24 15:50:16;;;;;;;7.97;4.70;;;7.30;99.90;;;;;;6232203;23;20089;-79
2021/12/24 15:53:07;;;;;;;6.22;3.63;;;7.40;99.90;;;;;;6212129;23;20035;-80
2021/12/24 15:55:55;;;;;;;3.65;2.95;;;7.40;99.90;;;;;;6220618;23;20020;-81
2021/12/24 15:58:42;;;;;;;3.03;2.28;;;7.40;99.90;;;;;;6230169;23;20104;-79
2021/12/24 16:01:30;;;;;;;3.00;2.45;;;7.40;99.90;;;;;;6229036;23;20028;-84
2021/12/24 16:04:18;;;;;;;3.63;2.67;;;7.40;99.90;;;;;;6213218;23;20036;-83
2021/12/24 16:07:06;;;;;;;4.53;2.95;;;7.40;99.90;;;;;;6236402;23;20501;-86
2021/12/24 16:09:53;;;;;;;3.78;2.75;;;7.40;99.90;;;;;;6191586;23;20047;-82
2021/12/24 16:12:41;;;;;;;3.83;2.78;;;7.30;99.90;;;;;;6205596;23;20021;-82
2021/12/24 16:15:34;;;;;;;4.63;3.05;;;7.40;99.90;;;;;;6225706;23;20028;-82
2021/12/24 16:18:21;;;;;;;7.85;3.40;;;7.40;99.90;;;;;;6184594;23;20028;-83
2021/12/24 16:21:09;;;;;;;9.05;4.68;;;7.40;99.90;;;;;;6203643;23;20046;-84
2021/12/24 16:24:00;;;;;;;10.27;5.03;;;7.30;99.90;;;;;;6196858;23;20108;-80
2021/12/24 16:26:51;;;;;;;8.30;4.05;;;7.30;99.90;;;;;;6171922;23;20025;-82
2021/12/24 16:29:52;;;;;;;4.60;3.38;;;7.30;99.90;;;;;;6197306;23;20032;-82
2021/12/24 16:32:41;;;;;;;6.95;3.97;;;7.30;99.90;;;;;;6215181;23;20024;-81
2021/12/24 16:35:32;;;;;;;5.35;3.47;;;7.30;99.90;;;;;;6193937;23;20125;-83
2021/12/24 16:38:19;;;;;;;4.32;3.47;;;7.30;99.90;;;;;;6192138;23;20335;-83
2021/12/24 16:41:09;;;;;;;5.18;3.35;;;7.40;99.90;;;;;;6211684;23;20401;-82
2021/12/24 16:43:57;;;;;;;7.43;4.70;;;7.40;99.90;;;;;;6171588;23;20044;-81
2021/12/24 16:46:47;;;;;;;6.10;4.07;;;7.40;99.90;;;;;;6190068;23;20024;-81
2021/12/24 16:49:39;;;;;;;6.35;4.05;;;7.40;99.90;;;;;;6191379;23;20166;-83
2021/12/24 16:52:31;;;;;;;7.63;4.50;;;7.40;99.90;;;;;;6190342;23;20025;-83
2021/12/24 16:55:23;;;;;;;8.90;5.00;;;7.40;99.90;;;;;;6215384;22;20171;-82
2021/12/24 16:58:13;;;;;;;8.57;5.10;;;7.40;99.90;;;;;;6214625;23;20043;-83
2021/12/24 17:01:01;;;;;;;7.75;5.22;;;7.40;99.90;;;;;;6210681;23;20072;-82
2021/12/24 17:03:51;;;;;;;8.15;5.35;;;7.40;99.90;;;;;;6191127;23;20025;-82
2021/12/24 17:06:39;;;;;;;7.78;5.22;;;7.30;99.90;;;;;;6189533;23;20033;-81
2021/12/24 17:09:27;;;;;;;7.30;5.20;;;7.30;99.90;;;;;;6191453;23;20029;-80
2021/12/24 17:12:15;;;;;;;9.15;5.90;;;7.20;99.90;;;;;;6192261;23;20055;-82
2021/12/24 17:15:06;;;;;;;9.70;5.63;;;7.20;99.90;;;;;;6192655;23;20080;-81
2021/12/24 17:17:54;;;;;;;9.10;6.10;;;7.20;99.90;;;;;;6191339;23;20086;-83
2021/12/24 17:20:42;;;;;;;8.90;5.78;;;7.20;99.90;;;;;;6191183;23;20159;-80
2021/12/24 17:23:29;;;;;;;9.23;6.25;;;7.20;99.90;;;;;;6171400;23;20091;-82
2021/12/24 17:26:23;;;;;;;7.78;5.22;;;7.20;99.90;;;;;;6191177;23;20036;-81
2021/12/24 17:29:11;;;;;;;18.67;11.63;;;7.10;99.90;;;;;;6187986;23;20031;-83
2021/12/24 17:31:58;;;;;;;11.38;7.00;;;7.10;99.90;;;;;;6191524;23;20431;-81
2021/12/24 17:34:46;;;;;;;14.18;9.13;;;7.10;99.90;;;;;;6193788;23;20038;-83
2021/12/24 17:37:35;;;;;;;7.00;4.85;;;7.10;99.90;;;;;;6191325;23;20033;-81
2021/12/24 17:40:23;;;;;;;8.35;5.65;;;7.10;99.90;;;;;;6213985;23;20139;-81
2021/12/24 17:43:14;;;;;;;13.20;9.35;;;7.20;99.90;;;;;;6215149;23;20032;-82
2021/12/24 17:46:01;;;;;;;9.07;6.78;;;7.20;99.90;;;;;;6192900;23;20032;-80
2021/12/24 17:48:49;;;;;;;7.45;5.05;;;7.20;99.90;;;;;;6191811;23;20391;-80
2021/12/24 17:51:37;;;;;;;8.10;5.78;;;7.20;99.90;;;;;;6177216;23;20024;-82
2021/12/24 17:54:24;;;;;;;12.38;5.63;;;7.20;99.90;;;;;;6176729;23;20032;-82
2021/12/24 17:57:14;;;;;;;9.15;5.70;;;7.10;99.90;;;;;;6175957;23;20028;-83
2021/12/24 18:00:10;;;;;;;;;;;7.10;99.90;;;;;;6197920;23;20036;-83
2021/12/24 18:02:57;;;;;;;13.10;5.85;;;7.10;99.90;;;;;;6196575;23;19916;-83
2021/12/24 18:05:45;;;;;;;10.25;6.05;;;7.10;99.90;;;;;;6221861;23;20028;-83
2021/12/24 18:08:32;;;;;;;14.85;8.93;;;7.10;99.90;;;;;;6201190;23;20021;-82
2021/12/24 18:11:24;;;;;;;26.95;15.18;;;7.10;99.90;;;;;;6228249;23;20024;-83
2021/12/24 18:14:15;;;;;;;9.52;7.00;;;7.10;99.90;;;;;;6208117;23;20094;-83
2021/12/24 18:17:03;;;;;;;12.98;7.28;;;7.10;99.90;;;;;;6181897;23;20411;-84
2021/12/24 18:19:55;;;;;;;10.10;7.72;;;7.10;99.90;;;;;;6200767;23;20099;-82
2021/12/24 18:22:47;;;;;;;11.88;7.70;;;7.00;99.90;;;;;;6189369;23;20460;-85
2021/12/24 18:25:34;;;;;;;14.38;8.43;;;7.00;99.90;;;;;;6199758;23;20020;-84
2021/12/24 18:28:22;;;;;;;11.98;8.57;;;7.10;99.90;;;;;;6222510;23;20317;-83
2021/12/24 18:31:11;;;;;;;13.23;8.82;;;7.10;99.90;;;;;;6182701;23;20020;-83
2021/12/24 18:34:00;;;;;;;12.18;8.60;;;7.10;99.90;;;;;;6193507;23;20128;-82
2021/12/24 18:36:48;;;;;;;12.48;9.05;;;7.10;99.90;;;;;;6213560;23;20031;-82
2021/12/24 18:39:36;;;;;;;14.38;10.13;;;7.10;99.90;;;;;;6220215;23;20156;-83
2021/12/24 18:42:24;;;;;;;20.25;10.95;;;7.10;99.90;;;;;;6219563;23;20025;-80
2021/12/24 18:45:11;;;;;;;15.20;11.18;;;7.10;99.90;;;;;;6197270;23;20028;-82
2021/12/24 18:47:59;;;;;;;15.52;11.18;;;7.00;99.90;;;;;;6197017;23;20024;-84
2021/12/24 18:50:49;;;;;;;16.23;11.15;;;7.10;99.90;;;;;;6197086;23;20040;-83
2021/12/24 18:53:39;;;;;;;18.42;12.55;;;7.10;99.90;;;;;;6194841;23;20051;-84